createdAt,value
2023-02-27T07:51:27.298Z,97600.94
2023-02-27T07:54:00.527Z,97601.75
2023-02-27T07:56:29.582Z,97606.45
2023-02-27T07:58:59.999Z,97606.76
2023-02-27T08:01:28.773Z,97604.33
2023-02-27T08:03:57.454Z,97610.16
2023-02-27T08:06:26.377Z,97613.95
2023-02-27T08:08:55.238Z,97618.00
2023-02-27T08:11:24.020Z,97623.64
2023-02-27T08:14:01.332Z,97630.06
2023-02-27T08:16:31.955Z,97630.67
2023-02-27T08:19:01.674Z,97635.95
2023-02-27T08:21:30.523Z,97640.27
2023-02-27T08:23:59.486Z,97645.67
2023-02-27T08:26:28.245Z,97651.85
2023-02-27T08:28:58.191Z,97648.89
2023-02-27T08:31:27.803Z,97650.97
2023-02-27T08:34:09.463Z,97650.17
2023-02-27T08:36:39.860Z,97654.45
2023-02-27T08:39:09.778Z,97660.80
2023-02-27T08:41:38.519Z,97663.86
2023-02-27T08:44:07.030Z,97666.55
2023-02-27T08:46:35.618Z,97677.42
2023-02-27T08:49:04.200Z,97680.97
2023-02-27T08:51:32.784Z,97688.13
2023-02-27T08:54:01.341Z,97689.12
2023-02-27T08:56:30.150Z,97688.50
2023-02-27T08:59:00.809Z,97690.89
2023-02-27T09:01:34.593Z,97695.43
2023-02-27T09:04:04.652Z,97702.97
2023-02-27T09:06:35.085Z,97705.60
2023-02-27T09:09:04.906Z,97710.80
2023-02-27T09:11:33.925Z,97719.81
2023-02-27T09:14:02.457Z,97729.25
2023-02-27T09:16:31.447Z,97731.23
2023-02-27T09:19:02.627Z,97735.00
2023-02-27T09:21:31.569Z,97739.61
2023-02-27T09:24:07.393Z,97739.59
2023-02-27T09:26:46.689Z,97736.96
2023-02-27T09:29:15.610Z,97738.16
2023-02-27T09:31:44.926Z,97743.50
2023-02-27T09:34:16.558Z,97742.63
2023-02-27T09:36:45.404Z,97744.77
2023-02-27T09:39:14.029Z,97749.30
2023-02-27T09:41:51.128Z,97754.74
2023-02-27T09:44:47.263Z,97762.38
2023-02-27T09:47:31.157Z,97770.77
2023-02-27T09:50:12.151Z,97774.02
2023-02-27T09:52:40.918Z,97784.27
2023-02-27T09:55:21.845Z,97785.86
2023-02-27T09:58:04.630Z,97786.36
2023-02-27T10:00:51.166Z,97778.76
2023-02-27T10:03:35.900Z,97781.92
2023-02-27T10:06:25.397Z,97783.08
2023-02-27T10:09:06.067Z,97785.77
2023-02-27T10:11:53.199Z,97792.42
2023-02-27T10:14:34.101Z,97798.56
2023-02-27T10:17:06.398Z,97799.60
2023-02-27T10:19:38.360Z,97801.92
2023-02-27T10:22:13.768Z,97807.92
2023-02-27T10:24:52.252Z,97810.40
2023-02-27T10:27:22.684Z,97810.52
2023-02-27T10:29:53.640Z,97808.41
2023-02-27T10:32:24.115Z,97807.77
2023-02-27T10:35:06.797Z,97812.80
2023-02-27T10:37:48.621Z,97817.81
2023-02-27T10:40:18.060Z,97812.97
2023-02-27T10:42:47.807Z,97811.87
2023-02-27T10:45:16.905Z,97819.46
2023-02-27T10:47:46.389Z,97826.02
2023-02-27T10:50:36.774Z,97831.21
2023-02-27T10:53:17.439Z,97838.79
2023-02-27T10:55:58.462Z,97849.06
2023-02-27T10:58:34.991Z,97856.98
2023-02-27T11:01:08.279Z,97859.48
2023-02-27T11:03:42.291Z,97861.52
2023-02-27T11:06:27.146Z,97869.28
2023-02-27T11:09:23.279Z,97873.13
2023-02-27T11:11:53.997Z,97872.83
2023-02-27T11:14:30.399Z,97871.52
2023-02-27T11:17:01.762Z,97872.05
2023-02-27T11:19:36.309Z,97871.66
2023-02-27T11:22:17.203Z,97877.75
2023-02-27T11:24:47.406Z,97883.82
2023-02-27T11:27:26.731Z,97885.17
2023-02-27T11:30:02.118Z,97886.17
2023-02-27T11:32:49.376Z,97889.17
2023-02-27T11:35:25.387Z,97892.86
2023-02-27T11:38:01.332Z,97894.67
2023-02-27T11:40:56.663Z,97894.58
2023-02-27T11:43:37.701Z,97896.80
2023-02-27T11:46:43.030Z,97902.32
2023-02-27T11:49:10.548Z,97908.51
2023-02-27T11:51:51.698Z,97909.75
2023-02-27T11:54:42.972Z,97909.34
2023-02-27T11:57:35.805Z,97909.46
2023-02-27T12:00:08.132Z,97914.02
2023-02-27T12:02:48.507Z,97916.62
2023-02-27T12:05:23.553Z,97924.39
2023-02-27T12:08:07.901Z,97929.20
2023-02-27T12:10:48.595Z,97934.05
2023-02-27T12:13:30.564Z,97939.10
2023-02-27T12:16:27.512Z,97948.02
2023-02-27T12:19:18.540Z,97957.14
2023-02-27T12:21:54.110Z,97959.45
2023-02-27T12:24:26.772Z,97961.99
2023-02-27T12:27:17.682Z,97964.21
2023-02-27T12:30:02.983Z,97968.40
2023-02-27T12:32:40.799Z,97973.27
2023-02-27T12:35:33.319Z,97977.59
2023-02-27T12:38:07.757Z,97980.42
2023-02-27T12:40:42.614Z,97985.10
2023-02-27T12:43:59.577Z,97985.01
2023-02-27T12:46:46.908Z,97993.02
2023-02-27T12:49:28.696Z,97998.59
2023-02-27T12:52:38.148Z,98002.85
2023-02-27T12:55:34.221Z,98013.85
2023-02-27T12:58:46.177Z,98014.88
2023-02-27T13:01:29.507Z,98023.75
2023-02-27T13:04:26.665Z,98029.39
2023-02-27T13:07:31.766Z,98031.36
2023-02-27T13:10:25.229Z,98041.38
2023-02-27T13:13:09.621Z,98046.16
2023-02-27T13:15:48.963Z,98053.84
2023-02-27T13:18:40.868Z,98056.17
2023-02-27T13:21:34.620Z,98054.05
2023-02-27T13:24:12.530Z,98057.95
2023-02-27T13:26:58.270Z,98058.29
2023-02-27T13:29:38.218Z,98060.73
2023-02-27T13:32:43.569Z,98063.58
2023-02-27T13:36:06.769Z,98069.71
2023-02-27T13:39:04.332Z,98072.32
2023-02-27T13:42:06.272Z,98075.77
2023-02-27T13:44:43.728Z,98080.30
2023-02-27T13:48:02.873Z,98084.60
2023-02-27T13:50:46.178Z,98083.94
2023-02-27T13:56:41.443Z,98089.40
2023-02-27T13:59:41.072Z,98093.94
2023-02-27T14:02:59.887Z,98096.85
2023-02-27T14:05:47.525Z,98102.61
2023-02-27T14:08:55.696Z,98108.23
2023-02-27T14:12:06.748Z,98113.70
2023-02-27T14:15:08.288Z,98115.55
2023-02-27T14:17:54.661Z,98115.61
2023-02-27T14:21:13.489Z,98117.45
2023-02-27T14:24:07.811Z,98122.15
2023-02-27T14:26:57.315Z,98128.00
2023-02-27T14:29:43.786Z,98128.44
2023-02-27T14:33:00.865Z,98130.38
2023-02-27T14:35:43.783Z,98128.29
2023-02-27T14:39:04.304Z,98127.56
2023-02-27T14:41:59.330Z,98134.73
2023-02-27T14:44:43.161Z,98143.80
2023-02-27T14:47:39.405Z,98145.47
2023-02-27T14:50:37.432Z,98148.50
2023-02-27T14:53:22.363Z,98146.86
2023-02-27T14:56:20.848Z,98145.89
2023-02-27T15:05:16.932Z,98156.52
2023-02-27T15:08:08.753Z,98153.81
2023-02-27T15:10:44.067Z,98158.38
2023-02-27T15:13:58.168Z,98163.16
2023-02-27T15:16:59.893Z,98170.31
2023-02-27T15:19:55.711Z,98178.90
2023-02-27T15:22:41.234Z,98189.67
2023-02-27T15:26:00.763Z,98195.93
2023-02-27T15:29:01.019Z,98207.29
2023-02-27T15:34:36.852Z,98220.05
2023-02-27T15:38:00.721Z,98228.56
2023-02-27T15:40:57.897Z,98237.73
2023-02-27T15:43:29.704Z,98241.61
2023-02-27T15:46:17.475Z,98238.05
2023-02-27T15:48:50.234Z,98237.48
2023-02-27T15:51:19.222Z,98238.05
2023-02-27T15:53:50.574Z,98237.73
2023-02-27T15:56:35.105Z,98242.55
2023-02-27T15:59:05.632Z,98247.77
2023-02-27T16:01:40.718Z,98249.40
2023-02-27T16:04:32.069Z,98255.31
2023-02-27T16:07:39.034Z,98262.64
2023-02-27T16:10:34.937Z,98270.73
2023-02-27T16:14:05.821Z,98274.55
2023-02-27T16:17:05.783Z,98284.77
2023-02-27T16:19:41.574Z,98289.96
2023-02-27T16:22:33.927Z,98297.39
2023-02-27T16:25:49.476Z,98298.58
2023-02-27T16:28:19.236Z,98303.40
2023-02-27T16:30:58.150Z,98309.27
2023-02-27T16:33:47.928Z,98313.45
2023-02-27T16:36:42.071Z,98320.17
2023-02-27T16:39:35.129Z,98315.54
2023-02-27T16:42:38.348Z,98311.80
2023-02-27T16:45:19.221Z,98316.13
2023-02-27T16:47:52.639Z,98326.23
2023-02-27T16:53:36.387Z,98330.67
2023-02-27T16:56:23.585Z,98334.11
2023-02-27T16:59:03.674Z,98333.09
2023-02-27T17:01:52.853Z,98338.67
2023-02-27T17:04:26.258Z,98343.55
2023-02-27T17:07:04.746Z,98353.69
2023-02-27T17:09:37.392Z,98363.84
2023-02-27T17:12:11.739Z,98364.71
2023-02-27T17:14:44.849Z,98365.58
2023-02-27T17:17:18.356Z,98357.45
2023-02-27T17:19:49.924Z,98358.43
2023-02-27T17:22:20.362Z,98367.93
2023-02-27T17:24:51.811Z,98379.71
2023-02-27T17:27:21.586Z,98385.30
2023-02-27T17:29:55.152Z,98390.63
2023-02-27T17:32:26.473Z,98387.71
2023-02-27T17:35:06.750Z,98388.02
2023-02-27T17:37:37.524Z,98385.20
2023-02-27T17:40:08.709Z,98389.45
2023-02-27T17:42:40.531Z,98386.05
2023-02-27T17:45:13.629Z,98387.26
2023-02-27T17:47:48.076Z,98394.08
2023-02-27T17:50:23.685Z,98397.17
2023-02-27T17:52:52.253Z,98398.30
2023-02-27T17:55:22.867Z,98403.27
2023-02-27T17:57:51.483Z,98403.55
2023-02-27T18:00:22.983Z,98404.80
2023-02-27T18:02:52.238Z,98405.42
2023-02-27T18:05:21.912Z,98403.29
2023-02-27T18:07:55.591Z,98409.26
2023-02-27T18:10:25.436Z,98408.70
2023-02-27T18:12:54.909Z,98409.94
2023-02-27T18:15:26.572Z,98407.55
2023-02-27T18:17:59.176Z,98407.39
2023-02-27T18:20:31.862Z,98411.73
2023-02-27T18:23:02.156Z,98418.90
2023-02-27T18:25:31.386Z,98420.21
2023-02-27T18:28:01.429Z,98425.66
2023-02-27T18:30:31.134Z,98426.61
2023-02-27T18:33:00.369Z,98429.47
2023-02-27T18:35:29.621Z,98430.50
2023-02-27T18:37:59.408Z,98424.69
2023-02-27T18:40:28.688Z,98426.91
2023-02-27T18:42:58.616Z,98428.52
2023-02-27T18:45:29.724Z,98431.64
2023-02-27T18:47:58.792Z,98436.96
2023-02-27T18:50:27.929Z,98441.20
2023-02-27T18:52:57.020Z,98443.05
2023-02-27T18:55:26.778Z,98442.98
2023-02-27T18:57:56.420Z,98443.88
2023-02-27T19:00:24.996Z,98441.77
2023-02-27T19:02:54.055Z,98437.64
2023-02-27T19:05:23.915Z,98439.69
2023-02-27T19:07:52.987Z,98443.83
2023-02-27T19:10:21.557Z,98445.70
2023-02-27T19:12:51.446Z,98440.74
2023-02-27T19:15:20.108Z,98443.24
2023-02-27T19:17:49.566Z,98444.79
2023-02-27T19:20:18.706Z,98440.04
2023-02-27T19:22:47.304Z,98444.82
2023-02-27T19:25:15.847Z,98449.21
2023-02-27T19:27:46.152Z,98452.91
2023-02-27T19:30:15.355Z,98455.31
2023-02-27T19:32:44.134Z,98458.58
2023-02-27T19:35:16.556Z,98464.55
2023-02-27T19:37:54.608Z,98475.89
2023-02-27T19:40:27.146Z,98487.16
2023-02-27T19:42:55.897Z,98485.04
2023-02-27T19:45:26.144Z,98492.17
2023-02-27T19:47:56.165Z,98493.50
2023-02-27T19:50:30.424Z,98486.42
2023-02-27T19:53:00.873Z,98484.52
2023-02-27T19:55:29.464Z,98489.52
2023-02-27T19:57:59.924Z,98494.84
2023-02-27T20:00:31.097Z,98496.25
2023-02-27T20:03:06.778Z,98496.67
2023-02-27T20:05:38.465Z,98495.08
2023-02-27T20:08:09.082Z,98496.40
2023-02-27T20:10:40.650Z,98493.81
2023-02-27T20:13:10.774Z,98500.24
2023-02-27T20:15:39.298Z,98499.34
2023-02-27T20:18:07.842Z,98500.71
2023-02-27T20:20:38.894Z,98503.22
2023-02-27T20:23:07.498Z,98500.17
2023-02-27T20:25:39.742Z,98499.43
2023-02-27T20:28:11.559Z,98496.27
2023-02-27T20:30:40.196Z,98497.34
2023-02-27T20:33:08.835Z,98500.43
2023-02-27T20:35:38.675Z,98504.40
2023-02-27T20:38:10.276Z,98502.55
2023-02-27T20:40:38.946Z,98504.27
2023-02-27T20:43:13.844Z,98507.16
2023-02-27T20:45:43.201Z,98511.78
2023-02-27T20:48:11.835Z,98508.36
2023-02-27T20:50:40.497Z,98510.42
2023-02-27T20:53:17.548Z,98507.14
2023-02-27T20:55:49.828Z,98504.88
2023-02-27T20:58:20.731Z,98505.77
2023-02-27T21:00:49.243Z,98502.58
2023-02-27T21:03:20.401Z,98505.54
2023-02-27T21:05:52.932Z,98508.73
2023-02-27T21:08:21.909Z,98509.44
2023-02-27T21:10:53.914Z,98506.35
2023-02-27T21:13:24.084Z,98506.46
2023-02-27T21:15:53.117Z,98507.99
2023-02-27T21:18:21.820Z,98503.73
2023-02-27T21:20:54.912Z,98497.11
2023-02-27T21:23:24.430Z,98491.70
2023-02-27T21:25:55.323Z,98490.58
2023-02-27T21:28:26.715Z,98496.69
2023-02-27T21:30:55.257Z,98491.98
2023-02-27T21:33:23.879Z,98488.52
2023-02-27T21:35:52.435Z,98490.23
2023-02-27T21:38:21.078Z,98492.71
2023-02-27T21:40:51.104Z,98490.81
2023-02-27T21:43:25.437Z,98495.50
2023-02-27T21:45:56.171Z,98508.14
2023-02-27T21:48:26.988Z,98521.55
2023-02-27T21:51:01.577Z,98532.97
2023-02-27T21:53:30.686Z,98537.29
2023-02-27T21:56:06.055Z,98531.77
2023-02-27T21:58:37.796Z,98537.86
2023-02-27T22:01:22.386Z,98539.57
2023-02-27T22:03:52.941Z,98533.20
2023-02-27T22:06:28.823Z,98527.13
2023-02-27T22:09:06.401Z,98538.90
2023-02-27T22:11:37.459Z,98545.95
2023-02-27T22:14:12.180Z,98547.55
2023-02-27T22:16:49.101Z,98562.54
2023-02-27T22:19:22.136Z,98569.56
2023-02-27T22:21:50.841Z,98573.20
2023-02-27T22:24:19.464Z,98581.04
2023-02-27T22:26:49.751Z,98580.54
2023-02-27T22:29:21.839Z,98568.06
2023-02-27T22:31:51.483Z,98563.19
2023-02-27T22:34:28.323Z,98573.63
2023-02-27T22:36:58.202Z,98571.48
2023-02-27T22:39:29.694Z,98567.25
2023-02-27T22:41:59.061Z,98565.00
2023-02-27T22:44:34.035Z,98564.42
2023-02-27T22:47:05.144Z,98559.14
2023-02-27T22:49:40.026Z,98550.09
2023-02-27T22:52:10.807Z,98544.36
2023-02-27T22:54:45.198Z,98545.04
2023-02-27T22:57:13.753Z,98539.85
2023-02-27T22:59:42.273Z,98542.02
2023-02-27T23:02:12.090Z,98548.63
2023-02-27T23:04:41.183Z,98551.02
2023-02-27T23:07:12.869Z,98555.05
2023-02-27T23:09:41.455Z,98550.77
2023-02-27T23:12:13.695Z,98549.82
2023-02-27T23:14:44.806Z,98551.60
2023-02-27T23:17:18.568Z,98553.70
2023-02-27T23:19:47.176Z,98552.42
2023-02-27T23:22:18.045Z,98548.93
2023-02-27T23:24:46.613Z,98554.28
2023-02-27T23:27:25.704Z,98554.06
2023-02-27T23:29:55.441Z,98556.09
2023-02-27T23:32:26.760Z,98557.41
2023-02-27T23:35:04.266Z,98556.05
2023-02-27T23:37:35.792Z,98559.39
2023-02-27T23:40:07.912Z,98560.95
2023-02-27T23:42:42.144Z,98568.46
2023-02-27T23:45:23.284Z,98568.19
2023-02-27T23:48:00.667Z,98572.28
2023-02-27T23:50:41.217Z,98572.83
2023-02-27T23:53:19.149Z,98579.40
2023-02-27T23:55:48.598Z,98580.40
2023-02-27T23:58:17.159Z,98583.80
